createdAt,value
2022-10-22T01:00:18.899Z,23.40
2022-10-22T01:11:17.167Z,23.20
2022-10-22T01:22:52.888Z,22.70
2022-10-22T01:33:51.920Z,22.20
2022-10-22T03:40:06.845Z,23.80
2022-10-22T04:15:27.090Z,23.70
2022-10-22T04:25:39.953Z,23.70
2022-10-22T06:48:57.816Z,23.40
2022-10-22T06:59:10.655Z,23.50
2022-10-22T07:09:22.923Z,23.40
2022-10-22T07:19:35.851Z,23.30
2022-10-22T07:29:44.739Z,23.20
2022-10-22T07:39:51.843Z,23.20
2022-10-22T07:50:00.690Z,23.10
2022-10-22T08:00:10.627Z,23.10
2022-10-22T08:10:25.003Z,23.10
2022-10-22T08:20:32.000Z,23.10
2022-10-22T08:30:41.451Z,23.00
2022-10-22T08:41:06.321Z,23.00
2022-10-22T08:51:23.666Z,23.00
2022-10-22T09:01:58.134Z,23.00
2022-10-22T09:12:44.675Z,22.90
2022-10-22T09:23:08.180Z,22.90
2022-10-22T09:33:26.974Z,22.90
2022-10-22T09:43:34.561Z,22.90
2022-10-22T09:53:46.530Z,22.90
2022-10-22T10:03:55.057Z,22.80
2022-10-22T10:14:13.881Z,22.80
2022-10-22T10:24:33.805Z,22.80
2022-10-22T10:34:51.986Z,22.80
2022-10-22T10:45:20.081Z,22.80
2022-10-22T10:55:57.482Z,22.80
2022-10-22T11:06:23.109Z,22.80
2022-10-22T11:17:17.772Z,22.80
2022-10-22T11:27:42.836Z,22.70
2022-10-22T11:37:53.443Z,22.70
2022-10-22T11:59:43.427Z,22.70
2022-10-22T12:09:56.469Z,22.70
2022-10-22T12:20:18.636Z,22.70
2022-10-22T12:30:28.441Z,22.70
2022-10-22T12:40:52.917Z,22.70
2022-10-22T12:51:07.604Z,22.60
2022-10-22T13:01:36.963Z,22.60
2022-10-22T13:12:22.340Z,22.60
2022-10-22T13:22:40.608Z,22.60
2022-10-22T13:33:01.203Z,22.60
2022-10-22T13:43:14.902Z,22.50
2022-10-22T13:53:43.193Z,22.60
2022-10-22T14:03:58.956Z,22.50
2022-10-22T14:14:20.248Z,22.50
2022-10-22T14:24:32.202Z,22.50
2022-10-22T14:34:39.122Z,22.50
2022-10-22T14:44:48.080Z,22.50
2022-10-22T14:54:58.298Z,22.50
2022-10-22T15:05:12.257Z,22.70
2022-10-22T15:39:02.910Z,23.00
2022-10-22T16:00:36.565Z,23.20
2022-10-22T16:35:04.528Z,22.90
2022-10-22T16:56:00.238Z,22.80
2022-10-22T17:31:13.834Z,22.80
2022-10-22T17:43:06.169Z,22.80
2022-10-22T17:53:35.387Z,22.90
2022-10-22T18:03:45.519Z,23.00
2022-10-22T18:14:02.994Z,23.10
2022-10-22T18:24:11.852Z,23.20
2022-10-22T18:34:24.344Z,23.20
2022-10-22T20:34:42.896Z,19.70
2022-10-22T22:22:05.702Z,19.80
2022-10-22T22:57:04.684Z,20.80
